Time;durP1;ratioP1;P1;durP2;ratioP2;P2;SDS_P1;SDS_P2;PMS_P1;PMS_P2;Temp;Humidity;BMP_temperature;BMP_pressure;BME280_temperature;BME280_humidity;BME280_pressure;Samples;Min_cycle;Max_cycle;Signal;HPM_P1;HPM_P2
2021/12/16 00:08:36;;;;;;;8.00;3.42;;;;;;;7.42;94.21;103562.06;4973283;28;96566;-34
2021/12/16 00:11:17;;;;;;;5.78;2.83;;;;;;;7.38;94.09;103557.56;4975254;28;96617;-34
2021/12/16 00:35:36;;;;;;;6.78;2.70;;;;;;;7.32;94.09;103540.56;4972353;28;97770;-34
2021/12/16 00:38:01;;;;;;;8.00;3.83;;;;;;;7.40;93.94;103560.28;4972564;28;100898;-34
2021/12/16 00:40:27;;;;;;;5.65;2.83;;;;;;;7.38;94.09;103567.47;4974290;28;96632;-34
2021/12/16 00:42:58;;;;;;;8.15;3.05;;;;;;;7.36;94.11;103555.78;4974205;28;96709;-34
2021/12/16 00:48:26;;;;;;;6.03;3.03;;;;;;;7.35;94.31;103556.72;4972510;28;97838;-34
2021/12/16 00:56:07;;;;;;;6.55;3.67;;;;;;;7.38;94.21;103551.28;4972180;28;97146;-34
2021/12/16 00:58:42;;;;;;;8.55;3.70;;;;;;;7.34;94.08;103544.09;4972425;28;100684;-34
2021/12/16 01:01:21;;;;;;;10.35;3.22;;;;;;;7.31;94.16;103554.91;4972577;28;96500;-34
2021/12/16 01:04:11;;;;;;;13.43;3.75;;;;;;;7.30;94.22;103545.06;4973560;28;96612;-34
2021/12/16 01:07:34;;;;;;;8.32;3.20;;;;;;;7.33;94.50;103561.22;4972847;28;98824;-34
2021/12/16 01:34:19;;;;;;;13.63;3.80;;;;;;;7.43;94.90;103600.69;4973964;28;96511;-34
2021/12/16 01:42:41;;;;;;;16.38;5.65;;;;;;;7.43;94.62;103598.00;4973327;28;97030;-34
2021/12/16 01:50:27;;;;;;;8.07;4.38;;;;;;;7.44;94.91;103603.41;4972942;28;97167;-34
2021/12/16 01:55:39;;;;;;;10.18;4.57;;;;;;;7.53;94.80;103625.81;4973085;28;96446;-34
2021/12/16 01:58:12;;;;;;;16.92;6.13;;;;;;;7.47;94.96;103610.59;4972590;28;96732;-34
2021/12/16 02:00:58;;;;;;;18.50;5.55;;;;;;;7.51;94.98;103617.75;4971415;28;100831;-34
2021/12/16 02:03:40;;;;;;;8.15;4.03;;;;;;;7.48;94.74;103614.16;4973326;28;99173;-34
2021/12/16 02:06:26;;;;;;;7.50;3.63;;;;;;;7.55;94.80;103627.63;4971257;28;96879;-34
2021/12/16 02:08:54;;;;;;;25.92;5.45;;;;;;;7.54;94.91;103622.25;4972856;28;97158;-34
2021/12/16 02:28:22;;;;;;;12.32;5.05;;;;;;;7.61;94.58;103643.78;4973074;28;96550;-34
2021/12/16 02:36:12;;;;;;;10.13;3.95;;;;;;;7.62;94.58;103645.56;4970116;28;97798;-34
2021/12/16 02:38:38;;;;;;;13.43;3.78;;;;;;;7.63;94.71;103643.78;4970695;28;97395;-34
2021/12/16 02:41:03;;;;;;;11.35;4.68;;;;;;;7.64;94.73;103642.88;4972524;28;96736;-34
2021/12/16 02:48:43;;;;;;;6.90;3.92;;;;;;;7.66;94.45;103652.75;4970464;28;96588;-34
2021/12/16 02:51:19;;;;;;;12.52;4.90;;;;;;;7.62;94.79;103636.59;4970880;28;97245;-34
2021/12/16 02:53:48;;;;;;;20.02;5.32;;;;;;;7.65;94.64;103645.56;4970564;28;100891;-34
2021/12/16 02:56:23;;;;;;;12.38;4.15;;;;;;;7.66;94.65;103647.34;4970878;28;101094;-34
2021/12/16 02:58:52;;;;;;;7.72;3.75;;;;;;;7.63;94.66;103643.78;4972333;28;96636;-34
2021/12/16 03:01:34;;;;;;;6.80;4.13;;;;;;;7.65;94.95;103652.75;4970761;28;97971;-34
2021/12/16 03:04:08;;;;;;;6.78;3.30;;;;;;;7.57;94.60;103630.31;4970199;28;101077;-34
2021/12/16 03:06:34;;;;;;;6.63;3.40;;;;;;;7.69;94.76;103653.66;4971709;28;97892;-34
2021/12/16 03:09:03;;;;;;;13.40;3.63;;;;;;;7.61;94.62;103637.50;4970795;28;96602;-34
2021/12/16 03:11:43;;;;;;;14.32;4.60;;;;;;;7.63;94.69;103641.09;4970916;28;96641;-34
2021/12/16 03:16:53;;;;;;;9.38;4.22;;;;;;;7.64;94.67;103626.69;4971759;28;97379;-34
2021/12/16 03:19:39;;;;;;;9.30;4.53;;;;;;;7.62;94.82;103631.19;4971828;28;96617;-34
2021/12/16 03:22:05;;;;;;;9.38;4.05;;;;;;;7.65;94.92;103641.97;4972518;28;96524;-34
2021/12/16 03:25:12;;;;;;;8.05;4.25;;;;;;;7.62;94.70;103637.47;4971766;28;99905;-34
2021/12/16 03:30:18;;;;;;;12.13;4.20;;;;;;;7.67;94.68;103648.25;4968895;28;96445;-34
2021/12/16 03:37:39;;;;;;;15.07;4.07;;;;;;;7.67;94.73;103650.94;4971181;28;97497;-34
2021/12/16 03:40:09;;;;;;;10.18;4.00;;;;;;;7.63;94.38;103633.88;4971623;28;96645;-34
2021/12/16 03:42:50;;;;;;;9.90;4.50;;;;;;;7.66;94.57;103638.38;4970352;28;97001;-34
2021/12/16 03:48:22;;;;;;;6.80;3.63;;;;;;;7.68;94.50;103651.88;4972038;28;97020;-34
2021/12/16 03:50:47;;;;;;;6.90;3.22;;;;;;;7.64;94.61;103648.28;4970318;28;96721;-34
2021/12/16 03:53:17;;;;;;;8.68;4.35;;;;;;;7.66;94.59;103654.56;4971682;28;96737;-34
2021/12/16 03:55:47;;;;;;;9.10;4.05;;;;;;;7.68;94.52;103655.47;4969251;28;101565;-34
2021/12/16 03:58:15;;;;;;;7.32;3.75;;;;;;;7.67;94.54;103648.25;4969936;28;100696;-34
2021/12/16 04:00:49;;;;;;;14.90;4.43;;;;;;;7.60;94.48;103633.91;4970016;28;96531;-34
2021/12/16 04:03:14;;;;;;;12.32;3.65;;;;;;;7.63;94.68;103642.00;4972609;28;96677;-34
2021/12/16 04:05:42;;;;;;;6.15;3.60;;;;;;;7.68;94.82;103654.56;4974397;28;98044;-34
2021/12/16 04:08:09;;;;;;;8.05;3.63;;;;;;;7.62;94.55;103652.78;4973176;28;100626;-34
2021/12/16 04:10:44;;;;;;;8.18;3.80;;;;;;;7.62;94.82;103650.97;4973322;28;96634;-34
2021/12/16 04:13:14;;;;;;;8.13;3.85;;;;;;;7.65;94.68;103648.28;4973578;28;96656;-34
2021/12/16 04:15:40;;;;;;;5.30;3.10;;;;;;;7.57;95.06;103641.09;4974335;28;99264;-34
2021/12/16 04:18:06;;;;;;;10.93;3.70;;;;;;;7.61;94.62;103642.91;4973014;28;100740;-34
2021/12/16 04:20:32;;;;;;;13.23;3.60;;;;;;;7.58;94.75;103646.50;4974130;28;96467;-34
2021/12/16 04:22:59;;;;;;;8.30;4.15;;;;;;;7.62;94.81;103653.66;4974661;28;96810;-34
2021/12/16 04:25:30;;;;;;;11.73;4.20;;;;;;;7.64;94.44;103662.66;4973145;28;101020;-34
2021/12/16 04:28:00;;;;;;;11.95;3.20;;;;;;;7.68;94.74;103659.97;4972702;28;100948;-34
2021/12/16 04:30:29;;;;;;;9.55;4.15;;;;;;;7.62;94.85;103656.34;4973003;28;96554;-34
2021/12/16 04:32:54;;;;;;;7.47;3.50;;;;;;;7.59;94.88;103650.09;4972908;28;96812;-34
2021/12/16 04:35:20;;;;;;;12.95;3.38;;;;;;;7.63;94.79;103660.88;4974264;28;97496;-34
2021/12/16 04:37:47;;;;;;;8.95;4.32;;;;;;;7.67;94.60;103664.44;4972654;28;101022;-34
2021/12/16 04:40:15;;;;;;;11.30;3.63;;;;;;;7.66;94.53;103663.53;4972745;28;96533;-34
2021/12/16 04:42:43;;;;;;;9.98;3.58;;;;;;;7.68;94.54;103666.25;4972685;28;96769;-34
2021/12/16 04:45:11;;;;;;;9.90;3.83;;;;;;;7.69;94.74;103659.94;4972104;28;100807;-34
2021/12/16 04:47:38;;;;;;;13.60;4.22;;;;;;;7.64;94.69;103640.19;4972546;28;101175;-34
2021/12/16 04:50:05;;;;;;;8.27;3.58;;;;;;;7.70;94.74;103656.34;4972616;28;96520;-34
2021/12/16 04:52:31;;;;;;;12.77;4.07;;;;;;;7.63;94.62;103651.88;4972697;28;98950;-34
2021/12/16 04:54:57;;;;;;;10.32;4.50;;;;;;;7.68;94.73;103663.56;4973612;28;97823;-34
2021/12/16 04:57:22;;;;;;;7.28;3.58;;;;;;;7.61;94.74;103657.28;4973799;28;97285;-34
2021/12/16 04:59:48;;;;;;;6.95;3.17;;;;;;;7.68;94.71;103665.34;4974002;28;96510;-34
2021/12/16 05:02:21;;;;;;;15.40;4.93;;;;;;;7.62;94.54;103650.97;4974328;28;96789;-34
2021/12/16 05:04:47;;;;;;;6.90;2.90;;;;;;;7.61;94.58;103653.69;4972431;28;99863;-34
2021/12/16 05:07:13;;;;;;;10.98;3.03;;;;;;;7.64;94.56;103665.34;4972238;28;100964;-34
2021/12/16 05:12:09;;;;;;;8.55;3.38;;;;;;;7.64;94.60;103664.47;4973696;28;96744;-34
2021/12/16 05:14:36;;;;;;;8.60;3.83;;;;;;;7.59;95.09;103660.88;4972213;28;99271;-34
2021/12/16 05:17:06;;;;;;;8.32;3.40;;;;;;;7.64;94.52;103669.84;4972067;28;100235;-34
2021/12/16 05:19:31;;;;;;;6.63;3.00;;;;;;;7.61;94.63;103668.06;4972225;28;96637;-34
2021/12/16 05:24:15;;;;;;;23.75;3.30;;;;;;;7.54;94.50;103669.00;4973567;28;96803;-34
2021/12/16 05:24:45;;;;;;;10.48;3.78;;;;;;;7.52;94.58;103669.91;4973240;28;98676;-34
2021/12/16 05:27:11;;;;;;;7.82;3.92;;;;;;;7.53;94.56;103683.41;4973789;28;97918;-34
2021/12/16 05:29:37;;;;;;;7.25;3.75;;;;;;;7.53;94.51;103679.78;4972124;28;96527;-34
2021/12/16 05:32:03;;;;;;;6.82;3.28;;;;;;;7.44;94.51;103672.63;4972045;28;96871;-34
2021/12/16 05:34:28;;;;;;;8.50;2.67;;;;;;;7.43;94.65;103681.59;4971201;28;101932;-34
2021/12/16 05:36:54;;;;;;;7.65;3.05;;;;;;;7.40;94.74;103684.31;4972711;28;98371;-34
2021/12/16 05:39:22;;;;;;;9.52;3.90;;;;;;;7.42;94.65;103690.59;4971940;28;96577;-34
2021/12/16 05:41:48;;;;;;;7.43;3.40;;;;;;;7.43;94.71;103701.38;4971935;28;96809;-34
2021/12/16 05:44:14;;;;;;;8.43;3.33;;;;;;;7.34;94.60;103692.41;4971689;28;100823;-34
2021/12/16 05:46:40;;;;;;;7.05;3.45;;;;;;;7.37;94.61;103697.81;4971559;28;100823;-34
2021/12/16 05:49:09;;;;;;;8.57;3.15;;;;;;;7.34;94.57;103698.72;4973069;28;96580;-34
2021/12/16 05:51:38;;;;;;;6.60;3.33;;;;;;;7.32;94.50;103697.81;4972069;28;96813;-34
2021/12/16 05:54:06;;;;;;;8.57;4.38;;;;;;;7.34;94.36;103712.19;4972017;28;101212;-34
2021/12/16 05:56:31;;;;;;;8.98;3.85;;;;;;;7.27;94.60;103701.41;4971417;28;101331;-34
2021/12/16 05:58:57;;;;;;;8.82;4.25;;;;;;;7.31;94.70;103712.19;4972577;28;96614;-34
2021/12/16 06:01:28;;;;;;;6.65;3.17;;;;;;;7.30;94.61;103717.59;4973155;28;96746;-34
2021/12/16 06:03:55;;;;;;;6.83;2.83;;;;;;;7.23;94.63;103706.81;4971388;28;101042;-34
2021/12/16 06:06:28;;;;;;;7.40;4.15;;;;;;;7.25;94.56;103709.53;4970911;28;101165;-34
2021/12/16 06:08:55;;;;;;;5.47;2.92;;;;;;;7.19;94.57;103699.63;4973373;28;96426;-34
2021/12/16 06:11:25;;;;;;;6.22;3.22;;;;;;;7.18;94.57;103703.22;4971538;28;96880;-34
2021/12/16 06:14:10;;;;;;;6.43;2.92;;;;;;;7.21;94.55;103715.81;4971267;28;100950;-34
2021/12/16 06:27:36;;;;;;;6.68;2.95;;;;;;;7.01;94.31;103716.72;4972654;28;96909;-34
2021/12/16 06:30:06;;;;;;;6.65;3.50;;;;;;;7.02;94.41;103729.28;4971191;28;96531;-34
2021/12/16 06:32:31;;;;;;;3.75;2.40;;;;;;;7.01;94.65;103732.00;4971237;28;97054;-34
2021/12/16 06:34:57;;;;;;;9.77;3.90;;;;;;;6.93;94.29;103720.31;4972250;28;99509;-34
2021/12/16 06:37:23;;;;;;;10.77;3.13;;;;;;;6.90;94.08;103728.41;4972287;28;97766;-34
2021/12/16 06:39:48;;;;;;;9.32;3.67;;;;;;;6.90;94.20;103731.97;4972262;28;96620;-34
2021/12/16 06:42:14;;;;;;;5.15;2.90;;;;;;;6.81;94.07;103730.16;4971483;28;96866;-34
2021/12/16 06:44:50;;;;;;;6.30;2.92;;;;;;;6.86;94.09;103753.53;4971667;28;97916;-34
2021/12/16 06:47:20;;;;;;;5.65;2.90;;;;;;;6.79;94.35;103742.78;4970407;28;99778;-34
2021/12/16 06:49:47;;;;;;;5.82;2.97;;;;;;;6.79;94.26;103752.63;4971781;28;96623;-34
2021/12/16 06:52:15;;;;;;;5.53;2.92;;;;;;;6.75;94.03;103746.34;4971006;28;96958;-34
2021/12/16 06:55:05;;;;;;;5.63;3.08;;;;;;;6.70;94.11;103744.56;4971652;28;99682;-34
2021/12/16 07:00:10;;;;;;;5.32;2.33;;;;;;;6.57;93.81;103754.38;4972249;28;96931;-34
2021/12/16 07:02:51;;;;;;;10.18;3.03;;;;;;;6.58;94.35;103764.28;4972170;28;96630;-34
2021/12/16 07:05:20;;;;;;;6.77;3.13;;;;;;;6.49;94.22;103748.09;4971821;28;97473;-34
2021/12/16 07:07:46;;;;;;;4.82;3.28;;;;;;;6.52;94.28;103764.25;4970979;28;103125;-34
2021/12/16 07:10:14;;;;;;;5.35;2.95;;;;;;;6.48;94.07;103754.38;4972207;28;96587;-34
2021/12/16 07:12:46;;;;;;;4.82;2.58;;;;;;;6.38;93.81;103751.66;4970523;28;96967;-34
2021/12/16 07:15:13;;;;;;;3.85;2.35;;;;;;;6.45;93.64;103784.88;4970214;28;101225;-34
2021/12/16 07:17:41;;;;;;;4.63;2.20;;;;;;;6.36;93.83;103780.38;4970502;28;100788;-34
2021/12/16 07:20:10;;;;;;;7.10;3.95;;;;;;;6.38;94.26;103783.94;4970632;28;96621;-34
2021/12/16 07:22:35;;;;;;;7.07;4.05;;;;;;;6.33;93.95;103780.34;4971997;28;96789;-34
2021/12/16 07:25:03;;;;;;;9.50;3.33;;;;;;;6.34;93.75;103798.31;4971553;28;99156;-34
2021/12/16 07:27:29;;;;;;;9.02;3.40;;;;;;;6.28;93.59;103808.16;4970264;28;101858;-34
2021/12/16 07:29:54;;;;;;;8.88;3.80;;;;;;;6.26;93.97;103809.94;4970573;28;96682;-34
2021/12/16 07:32:20;;;;;;;6.15;3.65;;;;;;;6.25;94.12;103808.16;4972418;28;96694;-34
2021/12/16 07:34:45;;;;;;;11.25;3.85;;;;;;;6.19;93.98;103791.97;4971496;28;116369;-34
2021/12/16 07:37:10;;;;;;;7.20;2.67;;;;;;;6.12;93.48;103786.53;4971445;28;97832;-34
2021/12/16 07:39:39;;;;;;;3.55;2.17;;;;;;;6.07;93.55;103798.19;4972946;28;123206;-34
2021/12/16 07:42:08;;;;;;;4.63;2.50;;;;;;;6.05;93.71;103808.03;4975263;28;96758;-34
2021/12/16 07:44:34;;;;;;;5.22;2.65;;;;;;;6.07;93.96;103827.78;4973630;28;100965;-34
2021/12/16 07:47:03;;;;;;;14.02;4.43;;;;;;;6.08;93.72;103826.91;4975081;28;97830;-34
2021/12/16 07:49:35;;;;;;;12.07;3.17;;;;;;;6.07;93.74;103833.16;4973731;28;96751;-34
2021/12/16 07:52:04;;;;;;;8.23;3.58;;;;;;;6.04;93.78;103844.81;4973669;28;96803;-34
2021/12/16 07:54:29;;;;;;;6.80;3.63;;;;;;;5.97;93.88;103836.72;4973139;28;103624;-34
2021/12/16 07:56:56;;;;;;;12.20;3.08;;;;;;;5.98;93.56;103842.06;4975274;28;97875;-34
2021/12/16 07:59:25;;;;;;;7.00;3.17;;;;;;;5.97;93.42;103842.09;4974914;28;96553;-34
2021/12/16 08:01:50;;;;;;;4.03;2.53;;;;;;;5.92;93.32;103850.97;4973494;28;98293;-34
2021/12/16 08:04:27;;;;;;;10.18;3.78;;;;;;;5.92;93.33;103858.16;4974613;28;97657;-34
2021/12/16 08:06:54;;;;;;;5.03;2.17;;;;;;;5.90;93.45;103847.38;4974224;28;99285;-34
2021/12/16 08:09:21;;;;;;;6.43;3.30;;;;;;;5.88;93.39;103857.22;4973540;28;96539;-34
2021/12/16 08:11:49;;;;;;;8.55;2.88;;;;;;;5.82;93.21;103856.31;4973328;28;96820;-34
2021/12/16 08:14:15;;;;;;;9.77;4.30;;;;;;;5.85;93.59;103856.31;4973318;28;100889;-34
2021/12/16 08:16:41;;;;;;;7.60;2.88;;;;;;;5.84;93.75;103844.66;4974412;28;97858;-34
2021/12/16 08:19:07;;;;;;;11.82;3.50;;;;;;;5.88;93.32;103857.22;4973344;28;96811;-34
2021/12/16 08:21:39;;;;;;;6.53;2.95;;;;;;;5.86;93.02;103858.09;4973915;28;96718;-34
2021/12/16 08:24:07;;;;;;;6.95;3.35;;;;;;;5.79;93.50;103856.25;4974486;28;97932;-34
2021/12/16 08:26:35;;;;;;;4.53;2.90;;;;;;;5.77;93.71;103853.59;4973121;28;100867;-34
2021/12/16 08:29:01;;;;;;;9.10;3.42;;;;;;;5.81;93.50;103862.56;4972599;28;97271;-34
2021/12/16 08:31:28;;;;;;;5.68;3.20;;;;;;;5.81;93.38;103871.53;4974719;28;96786;-34
2021/12/16 08:33:53;;;;;;;8.57;3.33;;;;;;;5.77;93.29;103864.34;4973987;28;99962;-34
2021/12/16 08:36:19;;;;;;;12.63;3.67;;;;;;;5.77;93.24;103867.03;4974187;28;96862;-34
2021/12/16 08:38:45;;;;;;;14.23;4.50;;;;;;;5.77;93.74;103879.56;4974163;28;98383;-34
2021/12/16 08:41:24;;;;;;;12.05;3.70;;;;;;;5.83;93.49;103885.00;4974596;28;96742;-34
2021/12/16 08:43:50;;;;;;;7.38;3.92;;;;;;;5.83;93.77;103885.88;4972746;28;101054;-34
2021/12/16 08:46:20;;;;;;;8.70;4.63;;;;;;;5.85;93.47;103886.81;4972592;28;101239;-34
2021/12/16 08:48:47;;;;;;;8.90;4.28;;;;;;;5.81;93.34;103876.91;4972992;28;98430;-34
2021/12/16 08:51:14;;;;;;;6.10;3.47;;;;;;;5.84;93.54;103894.84;4972911;28;96803;-34
2021/12/16 08:53:40;;;;;;;13.48;5.18;;;;;;;5.87;93.91;103894.91;4971708;28;101225;-34
2021/12/16 08:56:07;;;;;;;12.43;5.15;;;;;;;5.89;93.90;103883.25;4973973;28;97735;-34
2021/12/16 08:58:33;;;;;;;16.92;5.78;;;;;;;5.92;93.85;103885.06;4972570;28;96570;-34
2021/12/16 09:01:10;;;;;;;18.83;5.63;;;;;;;5.93;93.91;103901.22;4972517;28;96852;-34
2021/12/16 09:03:35;;;;;;;14.20;6.53;;;;;;;6.00;93.57;103914.75;4974019;28;97551;-34
2021/12/16 09:06:01;;;;;;;14.10;6.70;;;;;;;6.00;93.90;103906.66;4973385;28;97301;-34
2021/12/16 09:08:26;;;;;;;8.18;5.05;;;;;;;6.03;93.88;103894.16;4973596;28;96478;-34
2021/12/16 09:10:52;;;;;;;13.82;5.70;;;;;;;6.11;94.30;103908.53;4974262;28;96764;-34
2021/12/16 09:13:19;;;;;;;14.63;5.57;;;;;;;6.18;94.40;103912.19;4973360;28;97897;-34
2021/12/16 09:15:54;;;;;;;16.65;6.57;;;;;;;6.14;93.87;103900.47;4972237;28;101055;-34
2021/12/16 09:18:23;;;;;;;14.90;5.88;;;;;;;6.13;93.90;103900.50;4971655;28;97612;-34
2021/12/16 09:20:50;;;;;;;12.52;6.00;;;;;;;6.28;94.18;103923.91;4971971;28;97389;-34
2021/12/16 09:23:15;;;;;;;19.73;5.90;;;;;;;6.29;94.53;103913.16;4973516;28;97482;-34
2021/12/16 09:25:44;;;;;;;16.85;6.38;;;;;;;6.29;94.43;103913.16;4973477;28;97767;-34
2021/12/16 09:28:10;;;;;;;16.55;8.05;;;;;;;6.40;94.32;103921.28;4972122;28;96635;-34
2021/12/16 09:30:36;;;;;;;10.93;5.88;;;;;;;6.46;94.45;103933.88;4972221;28;96878;-34
2021/12/16 09:33:04;;;;;;;13.95;6.32;;;;;;;6.52;94.99;103925.81;4971959;28;100697;-34
2021/12/16 09:35:33;;;;;;;11.25;4.93;;;;;;;6.60;95.08;103932.13;4972108;28;101381;-34
2021/12/16 09:38:00;;;;;;;10.63;4.15;;;;;;;6.65;95.29;103926.78;4971710;28;96832;-34
2021/12/16 09:40:29;;;;;;;9.27;5.13;;;;;;;6.83;95.66;103934.06;4973131;28;96771;-34
2021/12/16 09:42:57;;;;;;;11.75;4.93;;;;;;;6.84;95.49;103922.38;4971197;28;101078;-34
2021/12/16 09:45:23;;;;;;;10.57;3.88;;;;;;;6.95;95.21;103942.19;4971924;28;101249;-34
2021/12/16 09:47:50;;;;;;;16.73;7.07;;;;;;;7.04;95.15;103925.16;4972274;28;96602;-34
2021/12/16 09:50:24;;;;;;;10.23;5.05;;;;;;;7.13;95.37;103939.53;4972151;28;96779;-34
2021/12/16 09:52:51;;;;;;;12.63;5.55;;;;;;;7.19;95.39;103936.84;4971953;28;103816;-34
2021/12/16 09:55:16;;;;;;;10.43;5.70;;;;;;;7.34;95.22;103943.16;4971868;28;100663;-34
2021/12/16 09:57:42;;;;;;;7.05;4.90;;;;;;;7.38;94.87;103943.19;4973538;28;96590;-34
2021/12/16 10:00:10;;;;;;;16.42;5.97;;;;;;;7.50;95.09;103953.09;4973349;28;96792;-34
2021/12/16 10:02:38;;;;;;;10.88;5.72;;;;;;;7.53;94.76;103944.09;4971054;28;102600;-34
2021/12/16 10:05:06;;;;;;;14.60;5.93;;;;;;;7.63;95.40;103946.81;4972012;28;100794;-34
2021/12/16 10:07:34;;;;;;;9.70;5.05;;;;;;;7.73;94.72;103934.22;4970951;28;99298;-34
2021/12/16 10:10:11;;;;;;;13.15;5.60;;;;;;;7.74;94.77;103929.72;4971599;28;96628;-34
2021/12/16 10:12:40;;;;;;;12.35;6.53;;;;;;;7.88;94.90;103947.72;4971457;28;101022;-34
2021/12/16 10:17:54;;;;;;;15.68;5.60;;;;;;;8.01;95.13;103948.63;4972755;28;96860;-34
2021/12/16 10:20:23;;;;;;;12.77;4.90;;;;;;;8.13;95.07;103957.59;4971472;28;96812;-34
2021/12/16 10:22:51;;;;;;;10.77;5.72;;;;;;;8.17;94.79;103954.88;4971111;28;101175;-34
2021/12/16 10:25:31;;;;;;;11.15;5.45;;;;;;;8.32;94.86;103955.75;4971509;28;101567;-34
2021/12/16 10:28:17;;;;;;;11.07;5.43;;;;;;;8.40;94.39;103965.69;4971417;28;96586;-34
2021/12/16 10:31:02;;;;;;;21.17;6.75;;;;;;;8.54;94.33;103951.25;4971490;28;97229;-34
2021/12/16 10:33:36;;;;;;;11.75;6.43;;;;;;;8.74;93.86;103953.88;4954914;28;101297;-34
2021/12/16 10:36:39;;;;;;;11.95;6.15;;;;;;;9.01;93.32;103958.25;4970591;28;102719;-34
2021/12/16 10:39:13;;;;;;;15.10;6.10;;;;;;;9.34;92.58;103951.75;4972046;28;96527;-34
2021/12/16 10:41:40;;;;;;;19.67;7.28;;;;;;;9.60;91.13;103956.09;4971685;28;119535;-34
2021/12/16 10:44:09;;;;;;;13.40;6.15;;;;;;;9.94;90.10;103959.47;4970700;28;117402;-34
2021/12/16 10:46:41;;;;;;;16.00;7.40;;;;;;;9.96;89.25;103941.38;4972879;28;97388;-34
2021/12/16 10:49:10;;;;;;;13.13;6.32;;;;;;;9.75;89.74;103935.25;4971202;28;96726;-34
2021/12/16 10:51:40;;;;;;;13.15;6.22;;;;;;;9.64;90.13;103944.34;4971508;28;98205;-34
2021/12/16 10:54:17;;;;;;;24.70;6.57;;;;;;;9.97;90.02;103944.06;4972099;28;97918;-34
2021/12/16 10:56:45;;;;;;;15.00;6.65;;;;;;;10.52;88.39;103945.34;4972305;28;99667;-34
2021/12/16 10:59:28;;;;;;;15.38;6.95;;;;;;;10.87;86.70;103938.59;4971600;28;96632;-34
2021/12/16 11:01:57;;;;;;;12.40;6.50;;;;;;;11.18;85.05;103944.50;4970876;28;97216;-34
2021/12/16 11:04:41;;;;;;;20.00;7.00;;;;;;;11.44;84.25;103952.25;4970512;28;100927;-34
2021/12/16 11:07:12;;;;;;;13.23;5.07;;;;;;;11.58;83.47;103951.13;4971656;28;102122;-34
2021/12/16 11:09:38;;;;;;;15.45;5.75;;;;;;;11.78;82.74;103954.44;4970860;28;96661;-34
2021/12/16 11:12:18;;;;;;;16.08;5.28;;;;;;;11.95;82.16;103947.84;4972716;28;96779;-34
2021/12/16 11:14:48;;;;;;;11.10;4.38;;;;;;;11.99;81.85;103936.00;4975329;28;99577;-34
2021/12/16 11:17:17;;;;;;;12.00;4.25;;;;;;;12.07;81.46;103951.25;4974398;28;100938;-34
2021/12/16 11:19:54;;;;;;;6.45;3.85;;;;;;;11.82;81.67;103944.41;4974034;28;96573;-34
2021/12/16 11:22:24;;;;;;;11.60;4.43;;;;;;;11.45;83.25;103947.72;4975531;28;96592;-35
2021/12/16 11:24:52;;;;;;;13.00;3.15;;;;;;;11.10;84.64;103956.38;4973386;28;100836;-34
2021/12/16 11:27:29;;;;;;;8.65;2.78;;;;;;;10.83;85.98;103951.28;4973920;28;100799;-34
2021/12/16 11:29:57;;;;;;;11.52;3.20;;;;;;;10.59;86.68;103941.66;4975569;28;96623;-34
2021/12/16 11:32:40;;;;;;;6.00;2.63;;;;;;;10.55;87.38;103939.00;4973891;28;97009;-34
2021/12/16 11:35:49;;;;;;;5.75;3.00;;;;;;;10.46;88.08;103949.94;4973663;28;103263;-34
2021/12/16 11:38:19;;;;;;;6.00;2.42;;;;;;;10.41;88.17;103939.13;4975288;28;101328;-34
2021/12/16 11:40:55;;;;;;;12.45;3.03;;;;;;;10.35;88.40;103934.69;4976069;28;98594;-34
2021/12/16 11:43:43;;;;;;;10.32;2.75;;;;;;;10.62;88.05;103947.03;4982203;28;96775;-34
2021/12/16 11:46:20;;;;;;;6.35;2.58;;;;;;;10.92;86.66;103935.84;4973602;28;101397;-34
2021/12/16 11:48:47;;;;;;;7.90;2.95;;;;;;;11.20;85.23;103939.03;4973539;28;100925;-34
2021/12/16 11:51:21;;;;;;;11.05;2.53;;;;;;;11.43;84.48;103942.31;4973026;28;97208;-34
2021/12/16 11:53:50;;;;;;;9.70;3.08;;;;;;;11.45;83.90;103934.16;4974820;28;96632;-34
2021/12/16 11:56:18;;;;;;;4.85;2.22;;;;;;;11.39;84.37;103940.59;4973565;28;102165;-34
2021/12/16 11:58:45;;;;;;;5.85;2.83;;;;;;;11.43;84.66;103933.28;4973302;28;100063;-34
2021/12/16 12:01:22;;;;;;;11.05;3.38;;;;;;;11.51;83.98;103934.03;4973432;28;98421;-34
2021/12/16 12:03:48;;;;;;;11.23;2.90;;;;;;;11.59;83.04;103933.94;4974147;28;96633;-34
2021/12/16 12:06:19;;;;;;;8.68;3.30;;;;;;;11.75;83.49;103945.44;4972261;28;101327;-34
2021/12/16 12:08:47;;;;;;;13.57;3.27;;;;;;;11.73;83.52;103942.75;4973697;28;100676;-34
2021/12/16 12:11:29;;;;;;;12.50;3.40;;;;;;;11.74;83.79;103946.38;4973170;28;98851;-34
2021/12/16 12:14:00;;;;;;;;;;;;;;;11.80;83.26;103949.88;4975435;28;96455;-34
2021/12/16 12:16:38;;;;;;;6.30;2.92;;;;;;;11.85;82.97;103931.69;4972860;28;100893;-34
2021/12/16 12:19:17;;;;;;;11.23;3.80;;;;;;;11.98;82.75;103931.50;4974603;28;97922;-34
2021/12/16 12:21:56;;;;;;;8.00;3.25;;;;;;;12.09;82.42;103929.50;4973210;28;96579;-34
2021/12/16 12:24:32;;;;;;;6.47;3.05;;;;;;;12.04;82.01;103920.53;4973862;28;96838;-34
2021/12/16 12:27:09;;;;;;;8.75;2.97;;;;;;;12.05;81.97;103927.75;4972985;28;100609;-34
2021/12/16 12:29:37;;;;;;;13.45;3.20;;;;;;;12.19;82.08;103927.50;4974653;28;98038;-34
2021/12/16 12:32:12;;;;;;;7.07;2.92;;;;;;;12.22;82.01;103925.59;4973163;28;96621;-34
2021/12/16 12:34:39;;;;;;;4.40;2.13;;;;;;;12.17;81.78;103923.91;4973408;28;96841;-34
2021/12/16 12:37:09;;;;;;;5.07;2.55;;;;;;;12.14;81.96;103918.53;4972574;28;100878;-34
2021/12/16 12:39:45;;;;;;;6.93;3.13;;;;;;;12.17;81.96;103923.91;4972382;28;100748;-34
2021/12/16 12:42:12;;;;;;;12.45;2.53;;;;;;;12.43;81.32;103921.56;4972364;28;96950;-34
2021/12/16 12:44:38;;;;;;;11.45;1.77;;;;;;;12.62;79.29;103911.22;4972725;28;96861;-34
2021/12/16 12:47:09;;;;;;;3.60;1.73;;;;;;;12.82;79.72;103918.06;4972502;28;101003;-34
2021/12/16 12:49:34;;;;;;;7.93;2.70;;;;;;;13.01;78.45;103919.44;4972682;28;100831;-34
2021/12/16 12:52:30;;;;;;;5.60;1.98;;;;;;;13.23;76.73;103930.75;4974168;28;96603;-35
2021/12/16 12:55:10;;;;;;;5.10;2.30;;;;;;;13.47;76.82;103929.31;4971826;28;96983;-34
2021/12/16 12:57:37;;;;;;;11.60;2.70;;;;;;;13.61;75.91;103926.25;4972439;28;101111;-34
2021/12/16 13:00:10;;;;;;;7.07;2.45;;;;;;;13.77;75.78;103924.00;4972766;28;100668;-34
2021/12/16 13:02:37;;;;;;;5.00;2.03;;;;;;;13.56;76.23;103928.16;4972158;28;96678;-34
2021/12/16 13:05:05;;;;;;;6.80;2.35;;;;;;;13.35;77.37;103937.78;4971867;28;96672;-34
2021/12/16 13:07:38;;;;;;;10.10;2.08;;;;;;;13.08;77.46;103922.91;4971789;28;101174;-34
2021/12/16 13:10:22;;;;;;;4.65;2.25;;;;;;;12.68;79.06;103934.66;4972267;28;101360;-34
2021/12/16 13:13:00;;;;;;;8.70;2.53;;;;;;;12.51;80.86;103933.22;4972137;28;96646;-34
2021/12/16 13:15:49;;;;;;;8.77;2.33;;;;;;;13.32;78.54;103921.47;4973885;28;96532;-34
2021/12/16 13:24:16;;;;;;;10.50;2.30;;;;;;;16.14;66.47;103924.06;4974020;28;96554;-34
2021/12/16 13:27:28;;;;;;;15.70;2.67;;;;;;;16.43;65.38;103921.22;4974044;28;97476;-34
2021/12/16 13:30:20;;;;;;;5.43;3.08;;;;;;;15.60;67.78;103924.13;4973720;28;98896;-34
2021/12/16 13:33:17;;;;;;;7.15;2.58;;;;;;;14.59;69.58;103930.91;4972694;28;97321;-34
2021/12/16 13:35:49;;;;;;;6.10;2.00;;;;;;;13.91;73.72;103932.72;4970224;28;97386;-35
2021/12/16 13:38:15;;;;;;;;;;;;;;;13.32;75.18;103929.66;4972279;28;96827;-34
2021/12/16 13:40:43;;;;;;;5.43;1.58;;;;;;;12.76;77.29;103929.97;4973063;28;102400;-34
2021/12/16 13:43:20;;;;;;;8.55;2.58;;;;;;;12.25;79.55;103921.91;4971679;28;100722;-34
2021/12/16 13:46:11;;;;;;;4.30;2.08;;;;;;;11.95;80.86;103909.81;4971847;28;96554;-34
2021/12/16 14:03:43;;;;;;;6.75;2.22;;;;;;;12.25;80.13;103914.69;5012125;28;98178;-34
2021/12/16 14:06:14;;;;;;;2.42;1.13;;;;;;;12.10;80.44;103914.97;5013165;28;100768;-34
2021/12/16 14:08:43;;;;;;;4.60;1.75;;;;;;;11.75;81.15;103913.75;5013766;28;96646;-34
2021/12/16 14:12:32;;;;;;;3.60;1.27;;;;;;;11.74;81.78;103916.50;5013581;28;97146;-34
2021/12/16 14:23:35;;;;;;;3.38;1.67;;;;;;;11.78;81.17;103938.13;5012836;28;96971;-34
2021/12/16 14:26:20;;;;;;;3.75;1.88;;;;;;;11.72;81.92;103934.63;5013776;28;100000;-34
2021/12/16 14:32:17;;;;;;;6.00;1.70;;;;;;;11.44;82.12;103946.84;5015009;28;96476;-34
2021/12/16 14:48:03;;;;;;;11.38;2.15;;;;;;;10.91;84.54;103945.75;5014455;28;97128;-34